Flight Track Log - Related Links

Times and Time Zones

All times are in EDT time to prevent confusion due to time zone crossing. See the DAL8887 flight status page for this flight to view local times or setup timezone preferences in your user account.

Time Position Orientation Groundspeed Altitude Reporting Facility
EDT Latitude Longitude Course Direction KTS MPH feet Rate Location/Type
Sun 06:58:38 PM 41.7667 -87.8000 257° West 172 198 2,300  Level Chicago TRACON
Sun 06:59:30 PM 41.7569 -87.8578 257° West 225 259 3,300 1,947 Climbing Chicago Center
Sun 07:00:32 PM 41.7692 -87.9497 280° West 248 285 6,000 3,097 Climbing Chicago Center
Sun 07:01:34 PM 41.7836 -88.0394 282° West 249 287 9,700 3,000 Climbing Chicago Center
Sun 07:02:36 PM 41.7953 -88.1561 278° West 272 313 12,200 2,758 Climbing Chicago Center
Sun 07:03:38 PM 41.8047 -88.2558 277° West 274 315 15,400 2,544 Climbing Chicago Center
Sun 07:04:41 PM 41.8567 -88.3394 310° West 292 336 17,500 1,344 Climbing Chicago Center
Sun 07:05:43 PM 41.9228 -88.4400 311° West 345 397 18,200 1,403 Climbing Chicago Center
Sun 07:06:45 PM 41.9964 -88.5506 312° West 393 452 20,400 2,226 Climbing Chicago Center
Sun 07:07:47 PM 42.0842 -88.6892 311° West 409 471 22,800 2,274 Climbing Chicago Center
Sun 07:08:49 PM 42.0967 -88.8528 276° West 419 482 25,100 2,661 Climbing Chicago Center
Sun 07:09:51 PM 42.1086 -89.0022 276° West 402 463 28,300 2,371 Climbing Chicago Center
Sun 07:10:53 PM 42.1308 -89.1433 282° West 386 444 30,000 823 Climbing Chicago Center
Sun 07:11:55 PM 42.1514 -89.2919 281° West 396 456 30,000  Level Chicago Center
Sun 07:12:57 PM 42.1733 -89.4456 281° West 411 473 30,000  Level Chicago Center
Sun 07:13:59 PM 42.2011 -89.6278 282° West 423 487 30,000  Level Chicago Center
Sun 07:15:01 PM 42.2225 -89.7794 281° West 413 475 30,000  Level Chicago Center
Sun 07:16:03 PM 42.2422 -89.9211 281° West 416 479 30,000  Level Chicago Center
Sun 07:17:06 PM 42.2631 -90.0739 280° West 416 479 30,000  Level Chicago Center
Sun 07:18:08 PM 42.2883 -90.2564 281° West 416 479 30,000  Level Chicago Center
Sun 07:19:10 PM 42.3089 -90.4078 280° West 415 478 30,000  Level Chicago Center
Sun 07:20:12 PM 42.3289 -90.5600 280° West 416 479 30,000  Level Chicago Center
Sun 07:21:14 PM 42.3492 -90.7114 280° West 414 476 30,000  Level Chicago Center
Sun 07:22:16 PM 42.3739 -90.8636 282° West 417 480 30,000  Level Chicago Center
Sun 07:23:18 PM 42.4522 -91.0239 304° West 429 494 30,000  Level Chicago Center
Sun 07:24:20 PM 42.5169 -91.1575 303° West 428 493 30,000  Level Chicago Center
Sun 07:25:22 PM 42.5806 -91.2900 303° West 423 487 30,000  Level Chicago Center
Sun 07:26:24 PM 42.6436 -91.4208 303° West 420 483 30,000  Level Chicago Center
Sun 07:27:26 PM 42.7153 -91.5714 303° West 421 484 30,000  Level Chicago Center
Sun 07:28:29 PM 42.7806 -91.7081 303° West 427 491 30,000  Level Chicago Center
Sun 07:29:31 PM 42.8422 -91.8394 303° West 434 499 30,000  Level Chicago Center
Sun 07:30:33 PM 42.9203 -92.0031 303° West 433 498 30,000  Level Chicago Center
Sun 07:31:06 PM 42.9453 -92.0581 302° West 433 498 30,000  Level Minneapolis Center
Sun 07:32:08 PM 43.0231 -92.2206 303° West 430 495 30,000  Level Minneapolis Center
Sun 07:33:10 PM 43.0867 -92.3561 303° West 428 493 30,000  Level Minneapolis Center
Sun 07:34:12 PM 43.1472 -92.4878 302° West 418 481 30,000  Level Minneapolis Center
Sun 07:35:14 PM 43.2069 -92.6186 302° West 411 473 30,000  Level Minneapolis Center
Sun 07:36:16 PM 43.2675 -92.7511 302° West 413 475 30,000  Level Minneapolis Center
Sun 07:37:18 PM 43.3406 -92.9144 302° West 420 483 30,000  Level Minneapolis Center
Sun 07:38:19 PM 43.3903 -93.0242 302° West 424 488 30,000 -1,366 Level Minneapolis Center
Sun 07:39:21 PM 43.4689 -93.1878 304° West 423 487 27,200 -2,516 Descending Minneapolis Center
Sun 07:40:23 PM 43.5625 -93.2839 323° Northwest 439 505 24,800 -1,984 Descending Minneapolis Center
Sun 07:41:25 PM 43.6869 -93.2747 North 448 516 23,100 -2,177 Descending Minneapolis Center
Sun 07:42:27 PM 43.8083 -93.2631 North 442 509 20,300 -2,634 Descending Minneapolis Center
Sun 07:43:28 PM 43.9225 -93.2522 North 419 482 17,700 -2,634 Descending Minneapolis Center
Sun 07:44:30 PM 44.0339 -93.2417 North 406 467 14,900 -3,145 Descending Minneapolis Center
Sun 07:45:32 PM 44.1633 -93.2283 North 391 450 11,200 -2,371 Descending Minneapolis Center
Sun 07:46:34 PM 44.2678 -93.2181 North 378 435 10,000 -585 Descending Minneapolis Center
Sun 07:47:35 PM 44.3489 -93.2100 North 368 423 10,000  Level Minneapolis Center
Sun 07:48:37 PM 44.4661 -93.1989 North 352 405 10,000  Level Minneapolis Center
Sun 07:49:39 PM 44.5622 -93.1889 North 345 397 10,000 -244 Level Minneapolis Center
Sun 07:50:40 PM 44.6442 -93.1903 359° North 286 329 9,500 -976 Descending Minneapolis Center
Sun 07:51:42 PM 44.7169 -93.2358 336° Northwest 282 325 8,000 -726 Descending Minneapolis Center
Sun 07:52:44 PM 44.7908 -93.2828 336° Northwest 275 316 8,000 -829 Level Minneapolis Center
Sun 07:53:45 PM 44.8356 -93.3656 307° West 269 310 6,300 -1,951 Descending Minneapolis Center
Sun 07:54:47 PM 44.8806 -93.4644 303° West 251 289 4,000 -1,452 Descending Minneapolis Center
Sun 07:55:49 PM 44.9281 -93.4325 25° Northeast 215 247 3,300 -537 Descending Minneapolis Center
Sun 07:56:50 PM 44.9406 -93.3614 76° East 192 221 2,900 -662 Descending Minneapolis Center
Sun 07:58:05 PM 44.9119 -93.2900 119° Southeast 172 198 1,800 -838 Descending Minneapolis Center
Sun 07:59:06 PM 44.8906 -93.2400 121° Southeast 152 175 1,000 -787 Descending Minneapolis Center
Sun 08:01:00 PM 44.8820 -93.2218 North  Level Estimated

Login

Don't have an account? Register now (free) for customized features, flight alerts, and more!